sensor_id;sensor_type;location;lat;lon;timestamp;P1;durP1;ratioP1;P2;durP2;ratioP2
26359;SDS011;14063;41.426;13.854;2022-09-12T00:02:02;0.00;;;0.00;;
26359;SDS011;14063;41.426;13.854;2022-09-12T00:04:28;0.00;;;0.00;;
26359;SDS011;14063;41.426;13.854;2022-09-12T00:06:54;0.00;;;0.00;;
26359;SDS011;14063;41.426;13.854;2022-09-12T00:09:21;0.00;;;0.00;;
26359;SDS011;14063;41.426;13.854;2022-09-12T00:11:47;0.08;;;0.00;;
26359;SDS011;14063;41.426;13.854;2022-09-12T00:14:14;0.00;;;0.00;;
26359;SDS011;14063;41.426;13.854;2022-09-12T00:16:41;0.00;;;0.00;;
26359;SDS011;14063;41.426;13.854;2022-09-12T00:19:07;0.00;;;0.00;;
26359;SDS011;14063;41.426;13.854;2022-09-12T00:21:34;0.00;;;0.00;;
26359;SDS011;14063;41.426;13.854;2022-09-12T00:24:01;0.00;;;0.00;;
26359;SDS011;14063;41.426;13.854;2022-09-12T00:26:27;0.00;;;0.00;;
26359;SDS011;14063;41.426;13.854;2022-09-12T00:28:57;0.00;;;0.00;;
26359;SDS011;14063;41.426;13.854;2022-09-12T00:31:26;0.00;;;0.00;;
26359;SDS011;14063;41.426;13.854;2022-09-12T00:33:55;0.00;;;0.00;;
26359;SDS011;14063;41.426;13.854;2022-09-12T00:36:23;0.00;;;0.00;;
26359;SDS011;14063;41.426;13.854;2022-09-12T00:38:50;0.00;;;0.00;;
26359;SDS011;14063;41.426;13.854;2022-09-12T00:41:18;0.00;;;0.00;;
26359;SDS011;14063;41.426;13.854;2022-09-12T00:43:46;0.00;;;0.00;;
26359;SDS011;14063;41.426;13.854;2022-09-12T00:48:53;0.00;;;0.00;;
26359;SDS011;14063;41.426;13.854;2022-09-12T00:51:21;0.00;;;0.00;;
26359;SDS011;14063;41.426;13.854;2022-09-12T00:53:48;0.00;;;0.00;;
26359;SDS011;14063;41.426;13.854;2022-09-12T00:56:15;0.00;;;0.00;;
26359;SDS011;14063;41.426;13.854;2022-09-12T00:58:54;0.00;;;0.00;;
26359;SDS011;14063;41.426;13.854;2022-09-12T01:01:20;0.00;;;0.00;;
26359;SDS011;14063;41.426;13.854;2022-09-12T01:03:47;0.00;;;0.00;;
26359;SDS011;14063;41.426;13.854;2022-09-12T01:06:17;0.00;;;0.00;;
26359;SDS011;14063;41.426;13.854;2022-09-12T01:08:46;0.00;;;0.00;;
26359;SDS011;14063;41.426;13.854;2022-09-12T01:11:13;0.00;;;0.00;;
26359;SDS011;14063;41.426;13.854;2022-09-12T01:13:39;0.00;;;0.00;;
26359;SDS011;14063;41.426;13.854;2022-09-12T01:16:06;0.00;;;0.00;;
26359;SDS011;14063;41.426;13.854;2022-09-12T01:26:56;0.00;;;0.00;;
26359;SDS011;14063;41.426;13.854;2022-09-12T01:37:41;0.00;;;0.00;;
26359;SDS011;14063;41.426;13.854;2022-09-12T01:42:52;0.00;;;0.00;;
26359;SDS011;14063;41.426;13.854;2022-09-12T01:45:42;0.00;;;0.00;;
26359;SDS011;14063;41.426;13.854;2022-09-12T01:48:13;0.00;;;0.00;;
26359;SDS011;14063;41.426;13.854;2022-09-12T01:50:50;0.00;;;0.00;;
26359;SDS011;14063;41.426;13.854;2022-09-12T01:55:59;0.00;;;0.00;;
26359;SDS011;14063;41.426;13.854;2022-09-12T01:58:26;0.00;;;0.00;;
26359;SDS011;14063;41.426;13.854;2022-09-12T02:03:24;0.00;;;0.00;;
26359;SDS011;14063;41.426;13.854;2022-09-12T02:05:55;0.00;;;0.00;;
26359;SDS011;14063;41.426;13.854;2022-09-12T02:08:34;0.00;;;0.00;;
26359;SDS011;14063;41.426;13.854;2022-09-12T02:11:07;0.00;;;0.00;;
26359;SDS011;14063;41.426;13.854;2022-09-12T02:16:02;0.00;;;0.00;;
26359;SDS011;14063;41.426;13.854;2022-09-12T02:18:29;0.00;;;0.00;;
26359;SDS011;14063;41.426;13.854;2022-09-12T02:20:56;0.00;;;0.00;;
26359;SDS011;14063;41.426;13.854;2022-09-12T02:23:25;0.00;;;0.00;;
26359;SDS011;14063;41.426;13.854;2022-09-12T02:25:54;0.00;;;0.00;;
26359;SDS011;14063;41.426;13.854;2022-09-12T02:28:23;0.00;;;0.00;;
26359;SDS011;14063;41.426;13.854;2022-09-12T02:31:09;0.00;;;0.00;;
26359;SDS011;14063;41.426;13.854;2022-09-12T02:38:51;0.00;;;0.00;;
26359;SDS011;14063;41.426;13.854;2022-09-12T02:41:18;0.00;;;0.00;;
26359;SDS011;14063;41.426;13.854;2022-09-12T02:43:46;0.00;;;0.00;;
26359;SDS011;14063;41.426;13.854;2022-09-12T02:46:21;0.00;;;0.00;;
26359;SDS011;14063;41.426;13.854;2022-09-12T02:48:47;0.00;;;0.00;;
26359;SDS011;14063;41.426;13.854;2022-09-12T02:51:13;0.00;;;0.00;;
26359;SDS011;14063;41.426;13.854;2022-09-12T02:53:40;0.00;;;0.00;;
26359;SDS011;14063;41.426;13.854;2022-09-12T02:56:07;0.00;;;0.00;;
26359;SDS011;14063;41.426;13.854;2022-09-12T02:58:35;0.00;;;0.00;;
26359;SDS011;14063;41.426;13.854;2022-09-12T03:01:11;0.00;;;0.00;;
26359;SDS011;14063;41.426;13.854;2022-09-12T03:06:20;0.00;;;0.00;;
26359;SDS011;14063;41.426;13.854;2022-09-12T03:08:59;0.00;;;0.00;;
26359;SDS011;14063;41.426;13.854;2022-09-12T03:12:17;0.00;;;0.00;;
26359;SDS011;14063;41.426;13.854;2022-09-12T03:14:42;0.00;;;0.00;;
26359;SDS011;14063;41.426;13.854;2022-09-12T03:17:07;0.00;;;0.00;;
26359;SDS011;14063;41.426;13.854;2022-09-12T03:19:53;0.00;;;0.00;;
26359;SDS011;14063;41.426;13.854;2022-09-12T03:25:07;0.00;;;0.00;;
26359;SDS011;14063;41.426;13.854;2022-09-12T03:27:38;0.00;;;0.00;;
26359;SDS011;14063;41.426;13.854;2022-09-12T03:30:05;0.00;;;0.00;;
26359;SDS011;14063;41.426;13.854;2022-09-12T03:32:40;0.00;;;0.00;;
26359;SDS011;14063;41.426;13.854;2022-09-12T03:35:06;0.00;;;0.00;;
26359;SDS011;14063;41.426;13.854;2022-09-12T03:37:32;0.00;;;0.00;;
26359;SDS011;14063;41.426;13.854;2022-09-12T03:39:59;0.00;;;0.00;;
26359;SDS011;14063;41.426;13.854;2022-09-12T03:42:25;0.00;;;0.00;;
26359;SDS011;14063;41.426;13.854;2022-09-12T03:44:51;0.00;;;0.00;;
26359;SDS011;14063;41.426;13.854;2022-09-12T03:47:17;0.00;;;0.00;;
26359;SDS011;14063;41.426;13.854;2022-09-12T03:49:43;0.00;;;0.00;;
26359;SDS011;14063;41.426;13.854;2022-09-12T03:52:10;0.00;;;0.00;;
26359;SDS011;14063;41.426;13.854;2022-09-12T03:54:37;0.00;;;0.00;;
26359;SDS011;14063;41.426;13.854;2022-09-12T03:57:03;0.00;;;0.00;;
26359;SDS011;14063;41.426;13.854;2022-09-12T03:59:30;0.00;;;0.00;;
26359;SDS011;14063;41.426;13.854;2022-09-12T04:01:56;0.00;;;0.00;;
26359;SDS011;14063;41.426;13.854;2022-09-12T04:04:23;0.00;;;0.00;;
26359;SDS011;14063;41.426;13.854;2022-09-12T04:06:49;0.00;;;0.00;;
26359;SDS011;14063;41.426;13.854;2022-09-12T04:09:15;0.00;;;0.00;;
26359;SDS011;14063;41.426;13.854;2022-09-12T04:11:41;0.00;;;0.00;;
26359;SDS011;14063;41.426;13.854;2022-09-12T04:14:07;0.00;;;0.00;;
26359;SDS011;14063;41.426;13.854;2022-09-12T04:16:34;0.00;;;0.00;;
26359;SDS011;14063;41.426;13.854;2022-09-12T04:19:00;0.00;;;0.00;;
26359;SDS011;14063;41.426;13.854;2022-09-12T04:21:26;0.00;;;0.00;;
26359;SDS011;14063;41.426;13.854;2022-09-12T04:23:52;0.00;;;0.00;;
26359;SDS011;14063;41.426;13.854;2022-09-12T04:26:19;0.00;;;0.00;;
26359;SDS011;14063;41.426;13.854;2022-09-12T04:28:46;0.00;;;0.00;;
26359;SDS011;14063;41.426;13.854;2022-09-12T04:31:13;0.00;;;0.00;;
26359;SDS011;14063;41.426;13.854;2022-09-12T04:33:41;0.00;;;0.00;;
26359;SDS011;14063;41.426;13.854;2022-09-12T04:36:09;0.00;;;0.00;;
26359;SDS011;14063;41.426;13.854;2022-09-12T04:38:35;0.00;;;0.00;;
26359;SDS011;14063;41.426;13.854;2022-09-12T04:41:15;0.00;;;0.00;;
26359;SDS011;14063;41.426;13.854;2022-09-12T04:43:42;0.00;;;0.00;;
26359;SDS011;14063;41.426;13.854;2022-09-12T04:46:11;0.00;;;0.00;;
26359;SDS011;14063;41.426;13.854;2022-09-12T04:48:37;0.00;;;0.00;;
26359;SDS011;14063;41.426;13.854;2022-09-12T04:51:14;0.00;;;0.00;;
26359;SDS011;14063;41.426;13.854;2022-09-12T04:53:41;0.00;;;0.00;;
26359;SDS011;14063;41.426;13.854;2022-09-12T04:56:08;0.00;;;0.00;;
26359;SDS011;14063;41.426;13.854;2022-09-12T04:58:35;0.00;;;0.00;;
26359;SDS011;14063;41.426;13.854;2022-09-12T05:01:05;0.00;;;0.00;;
26359;SDS011;14063;41.426;13.854;2022-09-12T05:03:32;0.00;;;0.00;;
26359;SDS011;14063;41.426;13.854;2022-09-12T05:06:00;0.00;;;0.00;;
26359;SDS011;14063;41.426;13.854;2022-09-12T05:08:27;0.00;;;0.00;;
26359;SDS011;14063;41.426;13.854;2022-09-12T05:10:54;0.00;;;0.00;;
26359;SDS011;14063;41.426;13.854;2022-09-12T05:13:21;0.00;;;0.00;;
26359;SDS011;14063;41.426;13.854;2022-09-12T05:15:54;0.00;;;0.00;;
26359;SDS011;14063;41.426;13.854;2022-09-12T05:18:20;0.00;;;0.00;;
26359;SDS011;14063;41.426;13.854;2022-09-12T05:20:47;0.00;;;0.00;;
26359;SDS011;14063;41.426;13.854;2022-09-12T05:23:13;0.00;;;0.00;;
26359;SDS011;14063;41.426;13.854;2022-09-12T05:25:46;0.00;;;0.00;;
26359;SDS011;14063;41.426;13.854;2022-09-12T05:28:12;0.00;;;0.00;;
26359;SDS011;14063;41.426;13.854;2022-09-12T05:30:38;0.00;;;0.00;;
26359;SDS011;14063;41.426;13.854;2022-09-12T05:33:04;0.00;;;0.00;;
26359;SDS011;14063;41.426;13.854;2022-09-12T05:35:31;0.00;;;0.00;;
26359;SDS011;14063;41.426;13.854;2022-09-12T05:37:57;0.00;;;0.00;;
26359;SDS011;14063;41.426;13.854;2022-09-12T05:40:27;0.00;;;0.00;;
26359;SDS011;14063;41.426;13.854;2022-09-12T05:43:06;0.00;;;0.00;;
26359;SDS011;14063;41.426;13.854;2022-09-12T05:45:32;0.00;;;0.00;;
26359;SDS011;14063;41.426;13.854;2022-09-12T05:47:58;0.00;;;0.00;;
26359;SDS011;14063;41.426;13.854;2022-09-12T05:50:26;0.00;;;0.00;;
26359;SDS011;14063;41.426;13.854;2022-09-12T05:52:53;0.00;;;0.00;;
26359;SDS011;14063;41.426;13.854;2022-09-12T05:55:19;0.00;;;0.00;;
26359;SDS011;14063;41.426;13.854;2022-09-12T05:57:45;0.00;;;0.00;;
26359;SDS011;14063;41.426;13.854;2022-09-12T06:00:12;0.00;;;0.00;;
26359;SDS011;14063;41.426;13.854;2022-09-12T06:02:39;0.00;;;0.00;;
26359;SDS011;14063;41.426;13.854;2022-09-12T06:05:05;0.10;;;0.10;;
26359;SDS011;14063;41.426;13.854;2022-09-12T06:07:31;0.00;;;0.00;;
26359;SDS011;14063;41.426;13.854;2022-09-12T06:09:57;0.00;;;0.00;;
26359;SDS011;14063;41.426;13.854;2022-09-12T06:12:24;0.10;;;0.10;;
26359;SDS011;14063;41.426;13.854;2022-09-12T06:14:51;0.00;;;0.00;;
26359;SDS011;14063;41.426;13.854;2022-09-12T06:17:18;0.10;;;0.10;;
26359;SDS011;14063;41.426;13.854;2022-09-12T06:19:44;0.00;;;0.00;;
26359;SDS011;14063;41.426;13.854;2022-09-12T06:22:10;0.10;;;0.10;;
26359;SDS011;14063;41.426;13.854;2022-09-12T06:24:38;0.10;;;0.10;;
26359;SDS011;14063;41.426;13.854;2022-09-12T06:27:04;0.10;;;0.10;;
26359;SDS011;14063;41.426;13.854;2022-09-12T06:29:30;0.10;;;0.10;;
26359;SDS011;14063;41.426;13.854;2022-09-12T06:31:59;0.10;;;0.10;;
26359;SDS011;14063;41.426;13.854;2022-09-12T06:34:26;0.10;;;0.10;;
26359;SDS011;14063;41.426;13.854;2022-09-12T06:36:52;0.10;;;0.10;;
26359;SDS011;14063;41.426;13.854;2022-09-12T06:39:19;0.10;;;0.10;;
26359;SDS011;14063;41.426;13.854;2022-09-12T06:41:46;0.10;;;0.10;;
26359;SDS011;14063;41.426;13.854;2022-09-12T06:44:14;0.10;;;0.10;;
26359;SDS011;14063;41.426;13.854;2022-09-12T06:46:40;0.00;;;0.00;;
26359;SDS011;14063;41.426;13.854;2022-09-12T06:49:07;0.10;;;0.10;;
26359;SDS011;14063;41.426;13.854;2022-09-12T06:51:33;0.10;;;0.10;;
26359;SDS011;14063;41.426;13.854;2022-09-12T06:54:03;0.10;;;0.10;;
26359;SDS011;14063;41.426;13.854;2022-09-12T06:56:29;0.08;;;0.08;;
26359;SDS011;14063;41.426;13.854;2022-09-12T06:58:56;0.10;;;0.10;;
26359;SDS011;14063;41.426;13.854;2022-09-12T07:01:29;0.10;;;0.10;;
26359;SDS011;14063;41.426;13.854;2022-09-12T07:03:57;0.10;;;0.10;;
26359;SDS011;14063;41.426;13.854;2022-09-12T07:06:25;0.00;;;0.00;;
26359;SDS011;14063;41.426;13.854;2022-09-12T07:08:59;0.10;;;0.10;;
26359;SDS011;14063;41.426;13.854;2022-09-12T07:11:29;0.10;;;0.10;;
26359;SDS011;14063;41.426;13.854;2022-09-12T07:13:57;0.10;;;0.10;;
26359;SDS011;14063;41.426;13.854;2022-09-12T07:16:23;0.10;;;0.10;;
26359;SDS011;14063;41.426;13.854;2022-09-12T07:18:50;0.10;;;0.10;;
26359;SDS011;14063;41.426;13.854;2022-09-12T07:21:17;0.10;;;0.10;;
26359;SDS011;14063;41.426;13.854;2022-09-12T07:23:43;0.10;;;0.10;;
26359;SDS011;14063;41.426;13.854;2022-09-12T07:26:10;0.10;;;0.10;;
26359;SDS011;14063;41.426;13.854;2022-09-12T07:28:37;0.10;;;0.10;;
26359;SDS011;14063;41.426;13.854;2022-09-12T07:31:04;0.10;;;0.10;;
26359;SDS011;14063;41.426;13.854;2022-09-12T07:33:30;0.10;;;0.10;;
26359;SDS011;14063;41.426;13.854;2022-09-12T07:36:00;0.10;;;0.10;;
26359;SDS011;14063;41.426;13.854;2022-09-12T07:38:27;0.10;;;0.10;;
26359;SDS011;14063;41.426;13.854;2022-09-12T07:40:53;0.10;;;0.10;;
26359;SDS011;14063;41.426;13.854;2022-09-12T07:43:20;0.10;;;0.10;;
26359;SDS011;14063;41.426;13.854;2022-09-12T07:45:46;0.20;;;0.20;;
26359;SDS011;14063;41.426;13.854;2022-09-12T07:48:12;0.20;;;0.20;;
26359;SDS011;14063;41.426;13.854;2022-09-12T07:50:38;0.17;;;0.17;;
26359;SDS011;14063;41.426;13.854;2022-09-12T07:53:05;0.10;;;0.10;;
26359;SDS011;14063;41.426;13.854;2022-09-12T07:55:31;0.10;;;0.10;;
26359;SDS011;14063;41.426;13.854;2022-09-12T07:57:57;0.13;;;0.13;;
26359;SDS011;14063;41.426;13.854;2022-09-12T08:00:23;0.17;;;0.17;;
26359;SDS011;14063;41.426;13.854;2022-09-12T08:02:51;0.13;;;0.13;;
26359;SDS011;14063;41.426;13.854;2022-09-12T08:05:18;0.20;;;0.20;;
26359;SDS011;14063;41.426;13.854;2022-09-12T08:07:45;0.10;;;0.10;;
26359;SDS011;14063;41.426;13.854;2022-09-12T08:10:11;0.10;;;0.10;;
26359;SDS011;14063;41.426;13.854;2022-09-12T08:12:37;0.20;;;0.20;;
26359;SDS011;14063;41.426;13.854;2022-09-12T08:15:03;0.20;;;0.20;;
26359;SDS011;14063;41.426;13.854;2022-09-12T08:17:32;0.10;;;0.10;;
26359;SDS011;14063;41.426;13.854;2022-09-12T08:19:58;0.10;;;0.10;;
26359;SDS011;14063;41.426;13.854;2022-09-12T08:22:24;0.10;;;0.10;;
26359;SDS011;14063;41.426;13.854;2022-09-12T08:24:50;0.20;;;0.20;;
26359;SDS011;14063;41.426;13.854;2022-09-12T08:27:17;0.10;;;0.10;;
26359;SDS011;14063;41.426;13.854;2022-09-12T08:29:43;0.20;;;0.20;;
26359;SDS011;14063;41.426;13.854;2022-09-12T08:32:09;0.20;;;0.20;;
26359;SDS011;14063;41.426;13.854;2022-09-12T08:34:36;0.20;;;0.20;;
26359;SDS011;14063;41.426;13.854;2022-09-12T08:37:02;0.20;;;0.20;;
26359;SDS011;14063;41.426;13.854;2022-09-12T08:39:28;0.20;;;0.20;;
26359;SDS011;14063;41.426;13.854;2022-09-12T08:44:27;0.20;;;0.20;;
26359;SDS011;14063;41.426;13.854;2022-09-12T08:52:13;0.20;;;0.20;;
26359;SDS011;14063;41.426;13.854;2022-09-12T08:54:42;0.20;;;0.20;;
26359;SDS011;14063;41.426;13.854;2022-09-12T08:57:13;0.20;;;0.20;;
26359;SDS011;14063;41.426;13.854;2022-09-12T08:59:40;0.20;;;0.20;;
26359;SDS011;14063;41.426;13.854;2022-09-12T09:17:41;0.20;;;0.20;;
26359;SDS011;14063;41.426;13.854;2022-09-12T09:20:14;0.20;;;0.20;;
26359;SDS011;14063;41.426;13.854;2022-09-12T09:22:50;0.20;;;0.20;;
26359;SDS011;14063;41.426;13.854;2022-09-12T09:25:18;0.20;;;0.20;;
26359;SDS011;14063;41.426;13.854;2022-09-12T09:27:48;0.20;;;0.20;;
26359;SDS011;14063;41.426;13.854;2022-09-12T09:30:17;0.20;;;0.20;;
26359;SDS011;14063;41.426;13.854;2022-09-12T09:32:45;0.20;;;0.20;;
26359;SDS011;14063;41.426;13.854;2022-09-12T09:35:21;0.20;;;0.20;;
26359;SDS011;14063;41.426;13.854;2022-09-12T09:40:36;0.20;;;0.20;;
26359;SDS011;14063;41.426;13.854;2022-09-12T09:43:43;0.20;;;0.20;;
26359;SDS011;14063;41.426;13.854;2022-09-12T09:46:02;0.20;;;0.20;;
26359;SDS011;14063;41.426;13.854;2022-09-12T09:48:32;0.20;;;0.20;;
26359;SDS011;14063;41.426;13.854;2022-09-12T09:51:00;0.20;;;0.20;;
26359;SDS011;14063;41.426;13.854;2022-09-12T09:56:26;0.20;;;0.20;;
26359;SDS011;14063;41.426;13.854;2022-09-12T09:58:52;0.20;;;0.20;;
26359;SDS011;14063;41.426;13.854;2022-09-12T10:01:19;0.10;;;0.10;;
26359;SDS011;14063;41.426;13.854;2022-09-12T10:03:52;0.28;;;0.28;;
26359;SDS011;14063;41.426;13.854;2022-09-12T10:08:48;0.13;;;0.13;;
26359;SDS011;14063;41.426;13.854;2022-09-12T10:13:41;0.10;;;0.10;;
26359;SDS011;14063;41.426;13.854;2022-09-12T10:16:18;0.20;;;0.20;;
26359;SDS011;14063;41.426;13.854;2022-09-12T10:18:47;0.10;;;0.10;;
26359;SDS011;14063;41.426;13.854;2022-09-12T10:21:18;0.10;;;0.10;;
26359;SDS011;14063;41.426;13.854;2022-09-12T10:23:46;0.20;;;0.20;;
26359;SDS011;14063;41.426;13.854;2022-09-12T10:26:14;0.10;;;0.10;;
26359;SDS011;14063;41.426;13.854;2022-09-12T10:28:44;0.10;;;0.10;;
26359;SDS011;14063;41.426;13.854;2022-09-12T10:31:55;0.10;;;0.10;;
26359;SDS011;14063;41.426;13.854;2022-09-12T10:34:03;0.08;;;0.08;;
26359;SDS011;14063;41.426;13.854;2022-09-12T10:36:36;0.10;;;0.10;;
26359;SDS011;14063;41.426;13.854;2022-09-12T10:39:02;0.10;;;0.10;;
26359;SDS011;14063;41.426;13.854;2022-09-12T10:41:35;0.00;;;0.00;;
26359;SDS011;14063;41.426;13.854;2022-09-12T10:44:06;0.10;;;0.10;;
26359;SDS011;14063;41.426;13.854;2022-09-12T10:46:34;0.10;;;0.10;;
26359;SDS011;14063;41.426;13.854;2022-09-12T10:49:16;0.10;;;0.10;;
26359;SDS011;14063;41.426;13.854;2022-09-12T10:51:45;0.10;;;0.10;;
26359;SDS011;14063;41.426;13.854;2022-09-12T10:54:13;0.10;;;0.10;;
26359;SDS011;14063;41.426;13.854;2022-09-12T10:56:51;0.05;;;0.05;;
26359;SDS011;14063;41.426;13.854;2022-09-12T11:01:57;0.00;;;0.00;;
26359;SDS011;14063;41.426;13.854;2022-09-12T11:13:03;0.00;;;0.00;;
26359;SDS011;14063;41.426;13.854;2022-09-12T11:17:48;0.10;;;0.10;;
26359;SDS011;14063;41.426;13.854;2022-09-12T11:25:27;0.00;;;0.00;;
26359;SDS011;14063;41.426;13.854;2022-09-12T11:35:52;0.00;;;0.00;;
26359;SDS011;14063;41.426;13.854;2022-09-12T11:40:54;0.00;;;0.00;;
26359;SDS011;14063;41.426;13.854;2022-09-12T11:45:58;0.10;;;0.10;;
26359;SDS011;14063;41.426;13.854;2022-09-12T11:50:53;0.00;;;0.00;;
26359;SDS011;14063;41.426;13.854;2022-09-12T11:53:24;0.00;;;0.00;;
26359;SDS011;14063;41.426;13.854;2022-09-12T11:55:54;0.00;;;0.00;;
26359;SDS011;14063;41.426;13.854;2022-09-12T11:58:24;0.00;;;0.00;;
26359;SDS011;14063;41.426;13.854;2022-09-12T12:00:52;0.10;;;0.10;;
26359;SDS011;14063;41.426;13.854;2022-09-12T12:03:29;0.00;;;0.00;;
26359;SDS011;14063;41.426;13.854;2022-09-12T12:05:58;0.00;;;0.00;;
26359;SDS011;14063;41.426;13.854;2022-09-12T12:08:28;0.08;;;0.08;;
26359;SDS011;14063;41.426;13.854;2022-09-12T12:11:00;0.00;;;0.00;;
26359;SDS011;14063;41.426;13.854;2022-09-12T12:16:06;0.10;;;0.10;;
26359;SDS011;14063;41.426;13.854;2022-09-12T12:18:34;0.10;;;0.10;;
26359;SDS011;14063;41.426;13.854;2022-09-12T12:22:01;0.10;;;0.10;;
26359;SDS011;14063;41.426;13.854;2022-09-12T12:29:46;0.00;;;0.00;;
26359;SDS011;14063;41.426;13.854;2022-09-12T12:34:38;0.00;;;0.00;;
26359;SDS011;14063;41.426;13.854;2022-09-12T12:47:52;0.00;;;0.00;;
26359;SDS011;14063;41.426;13.854;2022-09-12T12:52:54;0.00;;;0.00;;
26359;SDS011;14063;41.426;13.854;2022-09-12T12:57:48;0.10;;;0.10;;
26359;SDS011;14063;41.426;13.854;2022-09-12T13:05:43;0.00;;;0.00;;
26359;SDS011;14063;41.426;13.854;2022-09-12T13:10:53;0.00;;;0.00;;
26359;SDS011;14063;41.426;13.854;2022-09-12T13:14:30;0.00;;;0.00;;
26359;SDS011;14063;41.426;13.854;2022-09-12T13:16:34;0.10;;;0.10;;
26359;SDS011;14063;41.426;13.854;2022-09-12T13:19:04;0.00;;;0.00;;
26359;SDS011;14063;41.426;13.854;2022-09-12T13:21:31;0.10;;;0.10;;
26359;SDS011;14063;41.426;13.854;2022-09-12T13:24:10;0.00;;;0.00;;
26359;SDS011;14063;41.426;13.854;2022-09-12T13:26:40;0.10;;;0.10;;
26359;SDS011;14063;41.426;13.854;2022-09-12T13:29:08;0.10;;;0.10;;
26359;SDS011;14063;41.426;13.854;2022-09-12T13:31:35;0.10;;;0.10;;
26359;SDS011;14063;41.426;13.854;2022-09-12T13:34:03;0.00;;;0.00;;
26359;SDS011;14063;41.426;13.854;2022-09-12T13:41:48;0.10;;;0.10;;
26359;SDS011;14063;41.426;13.854;2022-09-12T13:44:17;0.00;;;0.00;;
26359;SDS011;14063;41.426;13.854;2022-09-12T13:46:45;0.00;;;0.00;;
26359;SDS011;14063;41.426;13.854;2022-09-12T13:49:17;0.00;;;0.00;;
26359;SDS011;14063;41.426;13.854;2022-09-12T13:51:45;0.00;;;0.00;;
26359;SDS011;14063;41.426;13.854;2022-09-12T13:54:17;0.00;;;0.00;;
26359;SDS011;14063;41.426;13.854;2022-09-12T13:56:47;0.00;;;0.00;;
26359;SDS011;14063;41.426;13.854;2022-09-12T13:59:14;0.00;;;0.00;;
26359;SDS011;14063;41.426;13.854;2022-09-12T14:01:45;0.10;;;0.10;;
26359;SDS011;14063;41.426;13.854;2022-09-12T14:04:15;0.00;;;0.00;;
26359;SDS011;14063;41.426;13.854;2022-09-12T14:07:06;0.10;;;0.10;;
26359;SDS011;14063;41.426;13.854;2022-09-12T14:09:39;0.00;;;0.00;;
26359;SDS011;14063;41.426;13.854;2022-09-12T14:12:48;0.00;;;0.00;;
26359;SDS011;14063;41.426;13.854;2022-09-12T14:14:56;0.10;;;0.10;;
26359;SDS011;14063;41.426;13.854;2022-09-12T14:17:26;0.08;;;0.08;;
26359;SDS011;14063;41.426;13.854;2022-09-12T14:20:06;0.00;;;0.00;;
26359;SDS011;14063;41.426;13.854;2022-09-12T14:22:33;0.00;;;0.00;;
26359;SDS011;14063;41.426;13.854;2022-09-12T14:25:00;0.08;;;0.08;;
26359;SDS011;14063;41.426;13.854;2022-09-12T14:27:31;0.08;;;0.08;;
26359;SDS011;14063;41.426;13.854;2022-09-12T14:30:03;0.00;;;0.00;;
26359;SDS011;14063;41.426;13.854;2022-09-12T14:32:33;0.00;;;0.00;;
26359;SDS011;14063;41.426;13.854;2022-09-12T14:35:18;0.00;;;0.00;;
26359;SDS011;14063;41.426;13.854;2022-09-12T14:37:45;0.10;;;0.10;;
26359;SDS011;14063;41.426;13.854;2022-09-12T14:40:18;0.10;;;0.10;;
26359;SDS011;14063;41.426;13.854;2022-09-12T14:42:44;0.10;;;0.10;;
26359;SDS011;14063;41.426;13.854;2022-09-12T14:45:15;0.00;;;0.00;;
26359;SDS011;14063;41.426;13.854;2022-09-12T14:47:42;0.00;;;0.00;;
26359;SDS011;14063;41.426;13.854;2022-09-12T14:50:16;0.10;;;0.10;;
26359;SDS011;14063;41.426;13.854;2022-09-12T14:52:43;0.00;;;0.00;;
26359;SDS011;14063;41.426;13.854;2022-09-12T14:57:45;0.00;;;0.00;;
26359;SDS011;14063;41.426;13.854;2022-09-12T15:02:44;0.10;;;0.10;;
26359;SDS011;14063;41.426;13.854;2022-09-12T15:05:15;0.00;;;0.00;;
26359;SDS011;14063;41.426;13.854;2022-09-12T15:07:56;0.08;;;0.08;;
26359;SDS011;14063;41.426;13.854;2022-09-12T15:10:37;0.00;;;0.00;;
26359;SDS011;14063;41.426;13.854;2022-09-12T15:13:13;0.10;;;0.10;;
26359;SDS011;14063;41.426;13.854;2022-09-12T15:15:50;0.10;;;0.10;;
26359;SDS011;14063;41.426;13.854;2022-09-12T15:18:17;0.05;;;0.05;;
26359;SDS011;14063;41.426;13.854;2022-09-12T15:20:45;0.10;;;0.10;;
26359;SDS011;14063;41.426;13.854;2022-09-12T15:23:53;0.10;;;0.10;;
26359;SDS011;14063;41.426;13.854;2022-09-12T15:26:02;0.08;;;0.08;;
26359;SDS011;14063;41.426;13.854;2022-09-12T15:28:29;0.10;;;0.10;;
26359;SDS011;14063;41.426;13.854;2022-09-12T15:30:56;0.00;;;0.00;;
26359;SDS011;14063;41.426;13.854;2022-09-12T15:33:23;0.00;;;0.00;;
26359;SDS011;14063;41.426;13.854;2022-09-12T15:35:50;0.10;;;0.10;;
26359;SDS011;14063;41.426;13.854;2022-09-12T15:38:17;0.00;;;0.00;;
26359;SDS011;14063;41.426;13.854;2022-09-12T15:40:43;0.10;;;0.10;;
26359;SDS011;14063;41.426;13.854;2022-09-12T15:43:13;0.00;;;0.00;;
26359;SDS011;14063;41.426;13.854;2022-09-12T15:45:43;0.00;;;0.00;;
26359;SDS011;14063;41.426;13.854;2022-09-12T15:48:09;0.00;;;0.00;;
26359;SDS011;14063;41.426;13.854;2022-09-12T15:50:35;0.05;;;0.05;;
26359;SDS011;14063;41.426;13.854;2022-09-12T15:53:02;0.10;;;0.10;;
26359;SDS011;14063;41.426;13.854;2022-09-12T15:55:29;0.10;;;0.10;;
26359;SDS011;14063;41.426;13.854;2022-09-12T15:57:56;0.00;;;0.00;;
26359;SDS011;14063;41.426;13.854;2022-09-12T16:00:22;0.00;;;0.00;;
26359;SDS011;14063;41.426;13.854;2022-09-12T16:02:50;0.10;;;0.10;;
26359;SDS011;14063;41.426;13.854;2022-09-12T16:05:20;0.08;;;0.08;;
26359;SDS011;14063;41.426;13.854;2022-09-12T16:07:49;0.05;;;0.05;;
26359;SDS011;14063;41.426;13.854;2022-09-12T16:10:16;0.00;;;0.00;;
26359;SDS011;14063;41.426;13.854;2022-09-12T16:12:43;0.00;;;0.00;;
26359;SDS011;14063;41.426;13.854;2022-09-12T16:15:14;0.00;;;0.00;;
26359;SDS011;14063;41.426;13.854;2022-09-12T16:17:40;0.00;;;0.00;;
26359;SDS011;14063;41.426;13.854;2022-09-12T16:20:07;0.00;;;0.00;;
26359;SDS011;14063;41.426;13.854;2022-09-12T16:22:33;0.00;;;0.00;;
26359;SDS011;14063;41.426;13.854;2022-09-12T16:24:59;0.00;;;0.00;;
26359;SDS011;14063;41.426;13.854;2022-09-12T16:27:25;0.00;;;0.00;;
26359;SDS011;14063;41.426;13.854;2022-09-12T16:29:52;0.00;;;0.00;;
26359;SDS011;14063;41.426;13.854;2022-09-12T16:32:18;0.00;;;0.00;;
26359;SDS011;14063;41.426;13.854;2022-09-12T16:34:44;0.00;;;0.00;;
26359;SDS011;14063;41.426;13.854;2022-09-12T16:37:10;0.05;;;0.05;;
26359;SDS011;14063;41.426;13.854;2022-09-12T16:39:36;0.00;;;0.00;;
26359;SDS011;14063;41.426;13.854;2022-09-12T16:42:02;0.00;;;0.00;;
26359;SDS011;14063;41.426;13.854;2022-09-12T16:44:29;0.03;;;0.03;;
26359;SDS011;14063;41.426;13.854;2022-09-12T16:46:55;0.00;;;0.00;;
26359;SDS011;14063;41.426;13.854;2022-09-12T16:49:21;0.00;;;0.00;;
26359;SDS011;14063;41.426;13.854;2022-09-12T16:51:47;0.00;;;0.00;;
26359;SDS011;14063;41.426;13.854;2022-09-12T16:54:14;0.00;;;0.00;;
26359;SDS011;14063;41.426;13.854;2022-09-12T16:56:41;0.00;;;0.00;;
26359;SDS011;14063;41.426;13.854;2022-09-12T16:59:08;0.00;;;0.00;;
26359;SDS011;14063;41.426;13.854;2022-09-12T17:01:36;0.08;;;0.08;;
26359;SDS011;14063;41.426;13.854;2022-09-12T17:04:02;0.00;;;0.00;;
26359;SDS011;14063;41.426;13.854;2022-09-12T17:06:29;0.00;;;0.00;;
26359;SDS011;14063;41.426;13.854;2022-09-12T17:08:57;0.00;;;0.00;;
26359;SDS011;14063;41.426;13.854;2022-09-12T17:11:31;0.00;;;0.00;;
26359;SDS011;14063;41.426;13.854;2022-09-12T17:13:58;0.10;;;0.10;;
26359;SDS011;14063;41.426;13.854;2022-09-12T17:16:25;0.00;;;0.00;;
26359;SDS011;14063;41.426;13.854;2022-09-12T17:18:52;0.00;;;0.00;;